sensor_id;sensor_type;location;lat;lon;timestamp;temperature;humidity
3976;DHT22;2002;48.812;9.180;2023-02-19T00:01:36;16.10;1.00
3976;DHT22;2002;48.812;9.180;2023-02-19T00:04:12;16.10;1.00
3976;DHT22;2002;48.812;9.180;2023-02-19T00:06:38;16.00;1.00
3976;DHT22;2002;48.812;9.180;2023-02-19T00:09:04;16.00;1.00
3976;DHT22;2002;48.812;9.180;2023-02-19T00:11:32;16.00;1.00
3976;DHT22;2002;48.812;9.180;2023-02-19T00:13:59;15.90;1.00
3976;DHT22;2002;48.812;9.180;2023-02-19T00:16:30;15.90;1.00
3976;DHT22;2002;48.812;9.180;2023-02-19T00:18:57;15.90;1.00
3976;DHT22;2002;48.812;9.180;2023-02-19T00:21:23;15.90;1.00
3976;DHT22;2002;48.812;9.180;2023-02-19T00:23:55;15.80;1.00
3976;DHT22;2002;48.812;9.180;2023-02-19T00:26:21;15.80;1.00
3976;DHT22;2002;48.812;9.180;2023-02-19T00:28:48;15.80;1.00
3976;DHT22;2002;48.812;9.180;2023-02-19T00:31:21;15.80;1.00
3976;DHT22;2002;48.812;9.180;2023-02-19T00:33:48;15.80;1.00
3976;DHT22;2002;48.812;9.180;2023-02-19T00:36:15;15.80;1.00
3976;DHT22;2002;48.812;9.180;2023-02-19T00:38:43;15.80;1.00
3976;DHT22;2002;48.812;9.180;2023-02-19T00:41:10;16.10;1.00
3976;DHT22;2002;48.812;9.180;2023-02-19T00:46:21;16.20;1.00
3976;DHT22;2002;48.812;9.180;2023-02-19T00:48:47;16.30;1.00
3976;DHT22;2002;48.812;9.180;2023-02-19T00:51:13;16.40;1.00
3976;DHT22;2002;48.812;9.180;2023-02-19T00:53:40;16.30;1.00
3976;DHT22;2002;48.812;9.180;2023-02-19T00:56:06;16.40;1.00
3976;DHT22;2002;48.812;9.180;2023-02-19T00:58:31;16.40;1.00
3976;DHT22;2002;48.812;9.180;2023-02-19T01:00:57;16.40;1.00
3976;DHT22;2002;48.812;9.180;2023-02-19T01:03:23;16.50;1.00
3976;DHT22;2002;48.812;9.180;2023-02-19T01:05:50;16.50;1.00
3976;DHT22;2002;48.812;9.180;2023-02-19T01:08:15;16.50;1.00
3976;DHT22;2002;48.812;9.180;2023-02-19T01:10:41;16.50;1.00
3976;DHT22;2002;48.812;9.180;2023-02-19T01:13:07;16.40;1.00
3976;DHT22;2002;48.812;9.180;2023-02-19T01:15:33;16.40;1.00
3976;DHT22;2002;48.812;9.180;2023-02-19T01:17:59;16.40;1.00
3976;DHT22;2002;48.812;9.180;2023-02-19T01:20:24;16.30;1.00
3976;DHT22;2002;48.812;9.180;2023-02-19T01:22:50;16.30;1.00
3976;DHT22;2002;48.812;9.180;2023-02-19T01:25:16;16.20;1.00
3976;DHT22;2002;48.812;9.180;2023-02-19T01:27:42;16.20;1.00
3976;DHT22;2002;48.812;9.180;2023-02-19T01:30:08;16.20;1.00
3976;DHT22;2002;48.812;9.180;2023-02-19T01:32:33;16.10;1.00
3976;DHT22;2002;48.812;9.180;2023-02-19T01:34:59;16.10;1.00
3976;DHT22;2002;48.812;9.180;2023-02-19T01:37:25;16.00;1.00
3976;DHT22;2002;48.812;9.180;2023-02-19T01:39:50;16.00;1.00
3976;DHT22;2002;48.812;9.180;2023-02-19T01:42:16;15.90;1.00
3976;DHT22;2002;48.812;9.180;2023-02-19T01:47:07;15.90;1.00
3976;DHT22;2002;48.812;9.180;2023-02-19T01:49:39;15.80;1.00
3976;DHT22;2002;48.812;9.180;2023-02-19T01:52:11;15.80;1.00
3976;DHT22;2002;48.812;9.180;2023-02-19T01:54:42;15.80;1.00
3976;DHT22;2002;48.812;9.180;2023-02-19T01:57:12;15.90;1.00
3976;DHT22;2002;48.812;9.180;2023-02-19T01:59:40;15.80;1.00
3976;DHT22;2002;48.812;9.180;2023-02-19T02:02:06;15.80;1.00
3976;DHT22;2002;48.812;9.180;2023-02-19T02:04:33;15.80;1.00
3976;DHT22;2002;48.812;9.180;2023-02-19T02:07:01;15.80;1.00
3976;DHT22;2002;48.812;9.180;2023-02-19T02:09:28;16.00;1.00
3976;DHT22;2002;48.812;9.180;2023-02-19T02:12:14;16.10;1.00
3976;DHT22;2002;48.812;9.180;2023-02-19T02:14:43;16.20;1.00
3976;DHT22;2002;48.812;9.180;2023-02-19T02:22:48;16.30;1.00
3976;DHT22;2002;48.812;9.180;2023-02-19T02:25:32;16.30;1.00
3976;DHT22;2002;48.812;9.180;2023-02-19T02:30:56;16.40;1.00
3976;DHT22;2002;48.812;9.180;2023-02-19T02:33:44;16.50;1.00
3976;DHT22;2002;48.812;9.180;2023-02-19T02:36:16;16.50;1.00
3976;DHT22;2002;48.812;9.180;2023-02-19T02:38:44;16.40;1.00
3976;DHT22;2002;48.812;9.180;2023-02-19T02:41:12;16.30;1.00
3976;DHT22;2002;48.812;9.180;2023-02-19T02:43:38;16.30;1.00
3976;DHT22;2002;48.812;9.180;2023-02-19T02:46:04;16.30;1.00
3976;DHT22;2002;48.812;9.180;2023-02-19T02:48:40;16.20;1.00
3976;DHT22;2002;48.812;9.180;2023-02-19T02:51:24;16.30;1.00
3976;DHT22;2002;48.812;9.180;2023-02-19T02:53:55;16.20;1.00
3976;DHT22;2002;48.812;9.180;2023-02-19T02:56:42;16.10;1.00
3976;DHT22;2002;48.812;9.180;2023-02-19T02:59:10;16.00;1.00
3976;DHT22;2002;48.812;9.180;2023-02-19T03:01:38;16.00;1.00
3976;DHT22;2002;48.812;9.180;2023-02-19T03:04:36;16.00;1.00
3976;DHT22;2002;48.812;9.180;2023-02-19T03:07:23;16.00;1.00
3976;DHT22;2002;48.812;9.180;2023-02-19T03:09:49;15.90;1.00
3976;DHT22;2002;48.812;9.180;2023-02-19T03:12:17;15.90;1.00
3976;DHT22;2002;48.812;9.180;2023-02-19T03:15:06;15.80;1.00
3976;DHT22;2002;48.812;9.180;2023-02-19T03:17:54;15.80;1.00
3976;DHT22;2002;48.812;9.180;2023-02-19T03:20:44;15.80;1.00
3976;DHT22;2002;48.812;9.180;2023-02-19T03:23:12;15.80;1.00
3976;DHT22;2002;48.812;9.180;2023-02-19T03:25:40;15.80;1.00
3976;DHT22;2002;48.812;9.180;2023-02-19T03:28:27;15.80;1.00
3976;DHT22;2002;48.812;9.180;2023-02-19T03:31:18;15.80;1.00
3976;DHT22;2002;48.812;9.180;2023-02-19T03:33:51;15.90;1.00
3976;DHT22;2002;48.812;9.180;2023-02-19T03:36:19;16.00;1.00
3976;DHT22;2002;48.812;9.180;2023-02-19T03:39:02;16.20;1.00
3976;DHT22;2002;48.812;9.180;2023-02-19T03:41:48;16.30;1.00
3976;DHT22;2002;48.812;9.180;2023-02-19T03:44:34;16.30;1.00
3976;DHT22;2002;48.812;9.180;2023-02-19T03:49:56;16.50;1.00
3976;DHT22;2002;48.812;9.180;2023-02-19T03:55:05;16.60;1.00
3976;DHT22;2002;48.812;9.180;2023-02-19T03:58:16;16.60;1.00
3976;DHT22;2002;48.812;9.180;2023-02-19T04:03:29;16.50;1.00
3976;DHT22;2002;48.812;9.180;2023-02-19T04:06:19;16.50;1.00
3976;DHT22;2002;48.812;9.180;2023-02-19T04:08:50;16.50;1.00
3976;DHT22;2002;48.812;9.180;2023-02-19T04:11:18;16.40;1.00
3976;DHT22;2002;48.812;9.180;2023-02-19T04:14:00;16.40;1.00
3976;DHT22;2002;48.812;9.180;2023-02-19T04:16:28;16.30;1.00
3976;DHT22;2002;48.812;9.180;2023-02-19T04:18:58;16.20;1.00
3976;DHT22;2002;48.812;9.180;2023-02-19T04:21:30;16.20;1.00
3976;DHT22;2002;48.812;9.180;2023-02-19T04:23:59;16.10;1.00
3976;DHT22;2002;48.812;9.180;2023-02-19T04:26:28;16.10;1.00
3976;DHT22;2002;48.812;9.180;2023-02-19T04:28:54;16.00;1.00
3976;DHT22;2002;48.812;9.180;2023-02-19T04:31:19;16.00;1.00
3976;DHT22;2002;48.812;9.180;2023-02-19T04:33:45;16.00;1.00
3976;DHT22;2002;48.812;9.180;2023-02-19T04:36:10;15.90;1.00
3976;DHT22;2002;48.812;9.180;2023-02-19T04:38:36;15.90;1.00
3976;DHT22;2002;48.812;9.180;2023-02-19T04:41:02;15.90;1.00
3976;DHT22;2002;48.812;9.180;2023-02-19T04:43:27;15.90;1.00
3976;DHT22;2002;48.812;9.180;2023-02-19T04:45:53;15.90;1.00
3976;DHT22;2002;48.812;9.180;2023-02-19T04:48:19;15.80;1.00
3976;DHT22;2002;48.812;9.180;2023-02-19T04:50:44;15.80;1.00
3976;DHT22;2002;48.812;9.180;2023-02-19T04:53:10;15.80;1.00
3976;DHT22;2002;48.812;9.180;2023-02-19T04:55:37;15.80;1.00
3976;DHT22;2002;48.812;9.180;2023-02-19T04:58:02;15.80;1.00
3976;DHT22;2002;48.812;9.180;2023-02-19T05:00:28;15.80;1.00
3976;DHT22;2002;48.812;9.180;2023-02-19T05:02:53;16.00;1.00
3976;DHT22;2002;48.812;9.180;2023-02-19T05:05:19;16.10;1.00
3976;DHT22;2002;48.812;9.180;2023-02-19T05:07:45;16.30;1.00
3976;DHT22;2002;48.812;9.180;2023-02-19T05:10:11;16.40;1.00
3976;DHT22;2002;48.812;9.180;2023-02-19T05:12:36;16.50;1.00
3976;DHT22;2002;48.812;9.180;2023-02-19T05:15:02;16.50;1.00
3976;DHT22;2002;48.812;9.180;2023-02-19T05:17:27;16.50;1.00
3976;DHT22;2002;48.812;9.180;2023-02-19T05:19:53;16.60;1.00
3976;DHT22;2002;48.812;9.180;2023-02-19T05:22:18;16.50;1.00
3976;DHT22;2002;48.812;9.180;2023-02-19T05:24:44;16.50;1.00
3976;DHT22;2002;48.812;9.180;2023-02-19T05:27:09;16.50;1.00
3976;DHT22;2002;48.812;9.180;2023-02-19T05:29:35;16.50;1.00
3976;DHT22;2002;48.812;9.180;2023-02-19T05:32:00;16.40;1.00
3976;DHT22;2002;48.812;9.180;2023-02-19T05:34:26;16.30;1.00
3976;DHT22;2002;48.812;9.180;2023-02-19T05:36:51;16.30;1.00
3976;DHT22;2002;48.812;9.180;2023-02-19T05:39:17;16.30;1.00
3976;DHT22;2002;48.812;9.180;2023-02-19T05:41:42;16.20;1.00
3976;DHT22;2002;48.812;9.180;2023-02-19T05:44:09;16.20;1.00
3976;DHT22;2002;48.812;9.180;2023-02-19T05:46:35;16.10;1.00
3976;DHT22;2002;48.812;9.180;2023-02-19T05:49:01;16.10;1.00
3976;DHT22;2002;48.812;9.180;2023-02-19T05:51:28;16.10;1.00
3976;DHT22;2002;48.812;9.180;2023-02-19T05:53:55;16.00;1.00
3976;DHT22;2002;48.812;9.180;2023-02-19T05:56:36;16.00;1.00
3976;DHT22;2002;48.812;9.180;2023-02-19T05:59:20;15.90;1.00
3976;DHT22;2002;48.812;9.180;2023-02-19T06:01:48;15.90;1.00
3976;DHT22;2002;48.812;9.180;2023-02-19T06:04:13;15.90;1.00
3976;DHT22;2002;48.812;9.180;2023-02-19T06:06:40;15.80;1.00
3976;DHT22;2002;48.812;9.180;2023-02-19T06:09:07;15.80;1.00
3976;DHT22;2002;48.812;9.180;2023-02-19T06:11:33;15.80;1.00
3976;DHT22;2002;48.812;9.180;2023-02-19T06:13:58;15.80;1.00
3976;DHT22;2002;48.812;9.180;2023-02-19T06:16:24;15.80;1.00
3976;DHT22;2002;48.812;9.180;2023-02-19T06:18:50;15.80;1.00
3976;DHT22;2002;48.812;9.180;2023-02-19T06:21:16;15.80;1.00
3976;DHT22;2002;48.812;9.180;2023-02-19T06:23:43;15.90;1.00
3976;DHT22;2002;48.812;9.180;2023-02-19T06:26:17;16.00;1.00
3976;DHT22;2002;48.812;9.180;2023-02-19T06:28:44;16.20;1.00
3976;DHT22;2002;48.812;9.180;2023-02-19T06:31:10;16.40;1.00
3976;DHT22;2002;48.812;9.180;2023-02-19T06:33:37;16.40;1.00
3976;DHT22;2002;48.812;9.180;2023-02-19T06:36:09;16.50;1.00
3976;DHT22;2002;48.812;9.180;2023-02-19T06:38:35;16.50;1.00
3976;DHT22;2002;48.812;9.180;2023-02-19T06:41:02;16.50;1.00
3976;DHT22;2002;48.812;9.180;2023-02-19T06:43:28;16.60;1.00
3976;DHT22;2002;48.812;9.180;2023-02-19T06:45:56;16.50;1.00
3976;DHT22;2002;48.812;9.180;2023-02-19T06:48:21;16.50;1.00
3976;DHT22;2002;48.812;9.180;2023-02-19T06:50:47;16.50;1.00
3976;DHT22;2002;48.812;9.180;2023-02-19T06:53:12;16.40;1.00
3976;DHT22;2002;48.812;9.180;2023-02-19T06:55:38;16.40;1.00
3976;DHT22;2002;48.812;9.180;2023-02-19T06:58:05;16.40;1.00
3976;DHT22;2002;48.812;9.180;2023-02-19T07:00:32;16.30;1.00
3976;DHT22;2002;48.812;9.180;2023-02-19T07:02:57;16.30;1.00
3976;DHT22;2002;48.812;9.180;2023-02-19T07:05:23;16.20;1.00
3976;DHT22;2002;48.812;9.180;2023-02-19T07:07:48;16.10;1.00
3976;DHT22;2002;48.812;9.180;2023-02-19T07:10:15;16.10;1.00
3976;DHT22;2002;48.812;9.180;2023-02-19T07:12:40;16.10;1.00
3976;DHT22;2002;48.812;9.180;2023-02-19T07:15:06;16.00;1.00
3976;DHT22;2002;48.812;9.180;2023-02-19T07:17:33;16.00;1.00
3976;DHT22;2002;48.812;9.180;2023-02-19T07:19:59;16.00;1.00
3976;DHT22;2002;48.812;9.180;2023-02-19T07:22:25;15.90;1.00
3976;DHT22;2002;48.812;9.180;2023-02-19T07:24:51;15.90;1.00
3976;DHT22;2002;48.812;9.180;2023-02-19T07:27:17;15.90;1.00
3976;DHT22;2002;48.812;9.180;2023-02-19T07:29:42;15.90;1.00
3976;DHT22;2002;48.812;9.180;2023-02-19T07:32:08;15.80;1.00
3976;DHT22;2002;48.812;9.180;2023-02-19T07:34:33;15.80;1.00
3976;DHT22;2002;48.812;9.180;2023-02-19T07:36:59;15.80;1.00
3976;DHT22;2002;48.812;9.180;2023-02-19T07:39:25;15.80;1.00
3976;DHT22;2002;48.812;9.180;2023-02-19T07:41:50;15.80;1.00
3976;DHT22;2002;48.812;9.180;2023-02-19T07:44:16;15.80;1.00
3976;DHT22;2002;48.812;9.180;2023-02-19T07:46:43;15.90;1.00
3976;DHT22;2002;48.812;9.180;2023-02-19T07:49:08;16.00;1.00
3976;DHT22;2002;48.812;9.180;2023-02-19T07:51:34;16.20;1.00
3976;DHT22;2002;48.812;9.180;2023-02-19T07:53:59;16.30;1.00
3976;DHT22;2002;48.812;9.180;2023-02-19T07:56:25;16.40;1.00
3976;DHT22;2002;48.812;9.180;2023-02-19T07:58:53;16.50;1.00
3976;DHT22;2002;48.812;9.180;2023-02-19T08:01:21;16.60;1.00
3976;DHT22;2002;48.812;9.180;2023-02-19T08:04:11;16.60;1.00
3976;DHT22;2002;48.812;9.180;2023-02-19T08:06:37;16.60;1.00
3976;DHT22;2002;48.812;9.180;2023-02-19T08:09:04;16.60;1.00
3976;DHT22;2002;48.812;9.180;2023-02-19T08:11:30;16.50;1.00
3976;DHT22;2002;48.812;9.180;2023-02-19T08:14:13;16.50;1.00
3976;DHT22;2002;48.812;9.180;2023-02-19T08:16:39;16.40;1.00
3976;DHT22;2002;48.812;9.180;2023-02-19T08:19:04;16.40;1.00
3976;DHT22;2002;48.812;9.180;2023-02-19T08:21:30;16.30;1.00
3976;DHT22;2002;48.812;9.180;2023-02-19T08:23:56;16.30;1.00
3976;DHT22;2002;48.812;9.180;2023-02-19T08:26:21;16.20;1.00
3976;DHT22;2002;48.812;9.180;2023-02-19T08:28:47;16.20;1.00
3976;DHT22;2002;48.812;9.180;2023-02-19T08:31:13;16.10;1.00
3976;DHT22;2002;48.812;9.180;2023-02-19T08:33:39;16.10;1.00
3976;DHT22;2002;48.812;9.180;2023-02-19T08:36:06;16.00;1.00
3976;DHT22;2002;48.812;9.180;2023-02-19T08:38:33;16.00;1.00
3976;DHT22;2002;48.812;9.180;2023-02-19T08:41:03;16.00;1.00
3976;DHT22;2002;48.812;9.180;2023-02-19T08:43:29;15.90;1.00
3976;DHT22;2002;48.812;9.180;2023-02-19T08:45:54;15.90;1.00
3976;DHT22;2002;48.812;9.180;2023-02-19T08:48:20;15.90;1.00
3976;DHT22;2002;48.812;9.180;2023-02-19T08:50:55;15.90;1.00
3976;DHT22;2002;48.812;9.180;2023-02-19T08:53:22;15.80;1.00
3976;DHT22;2002;48.812;9.180;2023-02-19T08:55:48;15.90;1.00
3976;DHT22;2002;48.812;9.180;2023-02-19T08:58:13;15.90;1.00
3976;DHT22;2002;48.812;9.180;2023-02-19T09:00:39;15.80;1.00
3976;DHT22;2002;48.812;9.180;2023-02-19T09:03:04;15.80;1.00
3976;DHT22;2002;48.812;9.180;2023-02-19T09:05:30;15.80;1.00
3976;DHT22;2002;48.812;9.180;2023-02-19T09:07:56;15.80;1.00
3976;DHT22;2002;48.812;9.180;2023-02-19T09:10:21;16.00;1.00
3976;DHT22;2002;48.812;9.180;2023-02-19T09:12:47;16.10;1.00
3976;DHT22;2002;48.812;9.180;2023-02-19T09:15:13;16.30;1.00
3976;DHT22;2002;48.812;9.180;2023-02-19T09:17:38;16.50;1.00
3976;DHT22;2002;48.812;9.180;2023-02-19T09:20:04;16.60;1.00
3976;DHT22;2002;48.812;9.180;2023-02-19T09:22:29;16.60;1.00
3976;DHT22;2002;48.812;9.180;2023-02-19T09:24:55;16.70;1.00
3976;DHT22;2002;48.812;9.180;2023-02-19T09:27:20;16.60;1.00
3976;DHT22;2002;48.812;9.180;2023-02-19T09:29:46;16.60;1.00
3976;DHT22;2002;48.812;9.180;2023-02-19T09:32:12;16.60;1.00
3976;DHT22;2002;48.812;9.180;2023-02-19T09:34:38;16.60;1.00
3976;DHT22;2002;48.812;9.180;2023-02-19T09:37:05;16.50;1.00
3976;DHT22;2002;48.812;9.180;2023-02-19T09:39:31;16.40;1.00
3976;DHT22;2002;48.812;9.180;2023-02-19T09:42:17;16.40;1.00
3976;DHT22;2002;48.812;9.180;2023-02-19T09:44:48;16.30;1.00
3976;DHT22;2002;48.812;9.180;2023-02-19T09:47:20;16.20;1.00
3976;DHT22;2002;48.812;9.180;2023-02-19T09:49:47;16.20;1.00
3976;DHT22;2002;48.812;9.180;2023-02-19T09:52:39;16.20;1.00
3976;DHT22;2002;48.812;9.180;2023-02-19T09:57:54;16.10;1.00
3976;DHT22;2002;48.812;9.180;2023-02-19T10:00:26;16.00;1.00
3976;DHT22;2002;48.812;9.180;2023-02-19T10:03:01;16.00;1.00
3976;DHT22;2002;48.812;9.180;2023-02-19T10:05:27;16.00;1.00
3976;DHT22;2002;48.812;9.180;2023-02-19T10:07:54;16.00;1.00
3976;DHT22;2002;48.812;9.180;2023-02-19T10:10:31;15.90;1.00
3976;DHT22;2002;48.812;9.180;2023-02-19T10:13:18;15.90;1.00
3976;DHT22;2002;48.812;9.180;2023-02-19T10:15:51;15.90;1.00
3976;DHT22;2002;48.812;9.180;2023-02-19T10:18:19;15.90;1.00
3976;DHT22;2002;48.812;9.180;2023-02-19T10:20:47;15.90;1.00
3976;DHT22;2002;48.812;9.180;2023-02-19T10:23:14;15.90;1.00
3976;DHT22;2002;48.812;9.180;2023-02-19T10:25:44;15.80;1.00
3976;DHT22;2002;48.812;9.180;2023-02-19T10:28:14;15.80;1.00
3976;DHT22;2002;48.812;9.180;2023-02-19T10:30:41;15.80;1.00
3976;DHT22;2002;48.812;9.180;2023-02-19T10:33:09;15.90;1.00
3976;DHT22;2002;48.812;9.180;2023-02-19T10:38:24;16.30;1.00
3976;DHT22;2002;48.812;9.180;2023-02-19T10:43:28;16.50;1.00
3976;DHT22;2002;48.812;9.180;2023-02-19T10:46:20;16.60;1.00
3976;DHT22;2002;48.812;9.180;2023-02-19T10:48:55;16.60;1.00
3976;DHT22;2002;48.812;9.180;2023-02-19T10:51:30;16.60;1.00
3976;DHT22;2002;48.812;9.180;2023-02-19T10:54:30;16.60;1.00
3976;DHT22;2002;48.812;9.180;2023-02-19T10:59:53;16.50;1.00
3976;DHT22;2002;48.812;9.180;2023-02-19T11:02:22;16.40;1.00
3976;DHT22;2002;48.812;9.180;2023-02-19T11:10:25;16.30;1.00
3976;DHT22;2002;48.812;9.180;2023-02-19T11:12:57;16.20;1.00
3976;DHT22;2002;48.812;9.180;2023-02-19T11:15:27;16.20;1.00
3976;DHT22;2002;48.812;9.180;2023-02-19T11:20:50;16.10;1.00
3976;DHT22;2002;48.812;9.180;2023-02-19T11:23:24;16.00;1.00
3976;DHT22;2002;48.812;9.180;2023-02-19T11:25:52;16.00;1.00
3976;DHT22;2002;48.812;9.180;2023-02-19T11:28:38;16.00;1.00
3976;DHT22;2002;48.812;9.180;2023-02-19T11:31:23;15.90;1.00
3976;DHT22;2002;48.812;9.180;2023-02-19T11:33:59;15.90;1.00
3976;DHT22;2002;48.812;9.180;2023-02-19T11:36:35;15.90;1.00
3976;DHT22;2002;48.812;9.180;2023-02-19T11:39:25;15.90;1.00
3976;DHT22;2002;48.812;9.180;2023-02-19T11:44:48;15.80;1.00
3976;DHT22;2002;48.812;9.180;2023-02-19T11:47:36;15.80;1.00
3976;DHT22;2002;48.812;9.180;2023-02-19T12:04:54;16.40;1.00
3976;DHT22;2002;48.812;9.180;2023-02-19T12:07:29;16.50;1.00
3976;DHT22;2002;48.812;9.180;2023-02-19T12:29:31;16.20;1.00
3976;DHT22;2002;48.812;9.180;2023-02-19T12:35:08;16.10;1.00
3976;DHT22;2002;48.812;9.180;2023-02-19T12:38:03;16.10;1.00
3976;DHT22;2002;48.812;9.180;2023-02-19T12:44:16;16.00;1.00
3976;DHT22;2002;48.812;9.180;2023-02-19T12:46:50;15.90;1.00
3976;DHT22;2002;48.812;9.180;2023-02-19T12:49:30;15.90;1.00
3976;DHT22;2002;48.812;9.180;2023-02-19T12:52:14;15.90;1.00
3976;DHT22;2002;48.812;9.180;2023-02-19T12:54:47;15.80;1.00
3976;DHT22;2002;48.812;9.180;2023-02-19T12:57:22;15.80;1.00
3976;DHT22;2002;48.812;9.180;2023-02-19T13:02:33;15.80;1.00
3976;DHT22;2002;48.812;9.180;2023-02-19T13:05:24;15.80;1.00
3976;DHT22;2002;48.812;9.180;2023-02-19T13:10:52;15.80;1.00
3976;DHT22;2002;48.812;9.180;2023-02-19T13:13:49;15.80;1.00
3976;DHT22;2002;48.812;9.180;2023-02-19T13:16:19;16.00;1.00
3976;DHT22;2002;48.812;9.180;2023-02-19T13:18:57;16.20;1.00
3976;DHT22;2002;48.812;9.180;2023-02-19T13:21:30;16.30;1.00
3976;DHT22;2002;48.812;9.180;2023-02-19T13:24:20;16.40;1.00
3976;DHT22;2002;48.812;9.180;2023-02-19T13:29:53;16.50;1.00
3976;DHT22;2002;48.812;9.180;2023-02-19T13:35:37;16.50;1.00
3976;DHT22;2002;48.812;9.180;2023-02-19T13:38:09;16.50;1.00
3976;DHT22;2002;48.812;9.180;2023-02-19T13:40:39;16.40;1.00
3976;DHT22;2002;48.812;9.180;2023-02-19T13:43:27;16.40;1.00
3976;DHT22;2002;48.812;9.180;2023-02-19T13:45:59;16.30;1.00
3976;DHT22;2002;48.812;9.180;2023-02-19T13:48:32;16.20;1.00
3976;DHT22;2002;48.812;9.180;2023-02-19T13:56:39;16.10;1.00
3976;DHT22;2002;48.812;9.180;2023-02-19T13:59:36;16.10;1.00
3976;DHT22;2002;48.812;9.180;2023-02-19T14:25:35;15.80;1.00
3976;DHT22;2002;48.812;9.180;2023-02-19T14:33:08;15.80;1.00
3976;DHT22;2002;48.812;9.180;2023-02-19T14:35:39;15.80;1.00
3976;DHT22;2002;48.812;9.180;2023-02-19T14:38:05;15.90;1.00
3976;DHT22;2002;48.812;9.180;2023-02-19T14:40:38;16.10;1.00
3976;DHT22;2002;48.812;9.180;2023-02-19T14:43:12;16.20;1.00
3976;DHT22;2002;48.812;9.180;2023-02-19T14:46:30;16.30;1.00
3976;DHT22;2002;48.812;9.180;2023-02-19T14:48:33;16.40;1.00
3976;DHT22;2002;48.812;9.180;2023-02-19T14:51:07;16.50;1.00
3976;DHT22;2002;48.812;9.180;2023-02-19T14:53:38;16.50;1.00
3976;DHT22;2002;48.812;9.180;2023-02-19T14:56:23;16.50;1.00
3976;DHT22;2002;48.812;9.180;2023-02-19T15:01:38;16.50;1.00
3976;DHT22;2002;48.812;9.180;2023-02-19T15:04:04;16.40;1.00
3976;DHT22;2002;48.812;9.180;2023-02-19T15:06:32;16.40;1.00
3976;DHT22;2002;48.812;9.180;2023-02-19T15:09:02;16.30;1.00
3976;DHT22;2002;48.812;9.180;2023-02-19T15:11:30;16.30;1.00
3976;DHT22;2002;48.812;9.180;2023-02-19T15:14:02;16.20;1.00
3976;DHT22;2002;48.812;9.180;2023-02-19T15:16:29;16.20;1.00
3976;DHT22;2002;48.812;9.180;2023-02-19T15:18:57;16.20;1.00
3976;DHT22;2002;48.812;9.180;2023-02-19T15:21:26;16.10;1.00
3976;DHT22;2002;48.812;9.180;2023-02-19T15:23:58;16.10;1.00
3976;DHT22;2002;48.812;9.180;2023-02-19T15:26:37;16.10;1.00
3976;DHT22;2002;48.812;9.180;2023-02-19T15:29:16;16.00;1.00
3976;DHT22;2002;48.812;9.180;2023-02-19T15:31:54;15.90;1.00
3976;DHT22;2002;48.812;9.180;2023-02-19T15:34:21;16.00;1.00
3976;DHT22;2002;48.812;9.180;2023-02-19T15:36:49;15.90;1.00
3976;DHT22;2002;48.812;9.180;2023-02-19T15:39:39;15.90;1.00
3976;DHT22;2002;48.812;9.180;2023-02-19T15:42:07;15.90;1.00
3976;DHT22;2002;48.812;9.180;2023-02-19T15:45:06;15.80;1.00
3976;DHT22;2002;48.812;9.180;2023-02-19T15:47:40;15.80;1.00
3976;DHT22;2002;48.812;9.180;2023-02-19T15:50:23;15.80;1.00
3976;DHT22;2002;48.812;9.180;2023-02-19T15:53:00;15.80;1.00
3976;DHT22;2002;48.812;9.180;2023-02-19T16:00:50;16.00;1.00
3976;DHT22;2002;48.812;9.180;2023-02-19T16:03:20;16.20;1.00
3976;DHT22;2002;48.812;9.180;2023-02-19T16:11:35;16.40;1.00
3976;DHT22;2002;48.812;9.180;2023-02-19T16:16:57;16.50;1.00
3976;DHT22;2002;48.812;9.180;2023-02-19T16:19:26;16.40;1.00
3976;DHT22;2002;48.812;9.180;2023-02-19T16:21:52;16.40;1.00
3976;DHT22;2002;48.812;9.180;2023-02-19T16:24:35;16.30;1.00
3976;DHT22;2002;48.812;9.180;2023-02-19T16:27:02;16.40;1.00
3976;DHT22;2002;48.812;9.180;2023-02-19T16:29:31;16.30;1.00
3976;DHT22;2002;48.812;9.180;2023-02-19T16:32:02;16.20;1.00
3976;DHT22;2002;48.812;9.180;2023-02-19T16:34:42;16.20;1.00
3976;DHT22;2002;48.812;9.180;2023-02-19T16:44:59;16.00;1.00
3976;DHT22;2002;48.812;9.180;2023-02-19T16:47:27;16.00;1.00
3976;DHT22;2002;48.812;9.180;2023-02-19T16:49:54;15.90;1.00
3976;DHT22;2002;48.812;9.180;2023-02-19T16:52:20;15.90;1.00
3976;DHT22;2002;48.812;9.180;2023-02-19T16:54:47;15.90;1.00
3976;DHT22;2002;48.812;9.180;2023-02-19T16:57:13;15.90;1.00
3976;DHT22;2002;48.812;9.180;2023-02-19T16:59:39;15.80;1.00
3976;DHT22;2002;48.812;9.180;2023-02-19T17:02:07;15.80;1.00
3976;DHT22;2002;48.812;9.180;2023-02-19T17:04:34;15.80;1.00
3976;DHT22;2002;48.812;9.180;2023-02-19T17:07:00;15.80;1.00
3976;DHT22;2002;48.812;9.180;2023-02-19T17:09:26;15.80;1.00
3976;DHT22;2002;48.812;9.180;2023-02-19T17:11:52;15.80;1.00
3976;DHT22;2002;48.812;9.180;2023-02-19T17:14:17;15.80;1.00
3976;DHT22;2002;48.812;9.180;2023-02-19T17:16:43;15.80;1.00
3976;DHT22;2002;48.812;9.180;2023-02-19T17:19:11;15.90;1.00
3976;DHT22;2002;48.812;9.180;2023-02-19T17:21:37;16.10;1.00
3976;DHT22;2002;48.812;9.180;2023-02-19T17:24:03;16.20;1.00
3976;DHT22;2002;48.812;9.180;2023-02-19T17:26:31;16.40;1.00
3976;DHT22;2002;48.812;9.180;2023-02-19T17:29:01;16.40;1.00
3976;DHT22;2002;48.812;9.180;2023-02-19T17:31:28;16.50;1.00
3976;DHT22;2002;48.812;9.180;2023-02-19T17:33:54;16.50;1.00
3976;DHT22;2002;48.812;9.180;2023-02-19T17:36:23;16.50;1.00
3976;DHT22;2002;48.812;9.180;2023-02-19T17:38:52;16.50;1.00
3976;DHT22;2002;48.812;9.180;2023-02-19T17:41:17;16.50;1.00
3976;DHT22;2002;48.812;9.180;2023-02-19T17:43:43;16.40;1.00
3976;DHT22;2002;48.812;9.180;2023-02-19T17:46:16;16.40;1.00
3976;DHT22;2002;48.812;9.180;2023-02-19T17:48:43;16.30;1.00
3976;DHT22;2002;48.812;9.180;2023-02-19T17:51:08;16.30;1.00
3976;DHT22;2002;48.812;9.180;2023-02-19T17:53:34;16.20;1.00
3976;DHT22;2002;48.812;9.180;2023-02-19T17:55:59;16.20;1.00
3976;DHT22;2002;48.812;9.180;2023-02-19T17:58:25;16.10;1.00
3976;DHT22;2002;48.812;9.180;2023-02-19T18:00:50;16.10;1.00
3976;DHT22;2002;48.812;9.180;2023-02-19T18:03:16;16.00;1.00
3976;DHT22;2002;48.812;9.180;2023-02-19T18:05:42;16.00;1.00
3976;DHT22;2002;48.812;9.180;2023-02-19T18:08:07;16.00;1.00
3976;DHT22;2002;48.812;9.180;2023-02-19T18:10:33;15.90;1.00
3976;DHT22;2002;48.812;9.180;2023-02-19T18:12:58;15.90;1.00
3976;DHT22;2002;48.812;9.180;2023-02-19T18:15:25;15.90;1.00
3976;DHT22;2002;48.812;9.180;2023-02-19T18:17:52;15.90;1.00
3976;DHT22;2002;48.812;9.180;2023-02-19T18:20:24;15.90;1.00
3976;DHT22;2002;48.812;9.180;2023-02-19T18:22:50;15.90;1.00
3976;DHT22;2002;48.812;9.180;2023-02-19T18:25:16;15.90;1.00
3976;DHT22;2002;48.812;9.180;2023-02-19T18:27:42;15.80;1.00
3976;DHT22;2002;48.812;9.180;2023-02-19T18:30:08;15.80;1.00
3976;DHT22;2002;48.812;9.180;2023-02-19T18:32:35;15.80;1.00
3976;DHT22;2002;48.812;9.180;2023-02-19T18:35:01;15.80;1.00
3976;DHT22;2002;48.812;9.180;2023-02-19T18:37:28;15.80;1.00
3976;DHT22;2002;48.812;9.180;2023-02-19T18:39:58;15.90;1.00
3976;DHT22;2002;48.812;9.180;2023-02-19T18:42:24;16.00;1.00
3976;DHT22;2002;48.812;9.180;2023-02-19T18:44:51;16.10;1.00
3976;DHT22;2002;48.812;9.180;2023-02-19T18:47:18;16.20;1.00
3976;DHT22;2002;48.812;9.180;2023-02-19T18:49:48;16.30;1.00
3976;DHT22;2002;48.812;9.180;2023-02-19T18:52:16;16.40;1.00
3976;DHT22;2002;48.812;9.180;2023-02-19T18:54:45;16.40;1.00
3976;DHT22;2002;48.812;9.180;2023-02-19T18:57:11;16.50;1.00
3976;DHT22;2002;48.812;9.180;2023-02-19T18:59:39;16.50;1.00
3976;DHT22;2002;48.812;9.180;2023-02-19T19:02:05;16.40;1.00
3976;DHT22;2002;48.812;9.180;2023-02-19T19:04:32;16.40;1.00
3976;DHT22;2002;48.812;9.180;2023-02-19T19:06:58;16.30;1.00
3976;DHT22;2002;48.812;9.180;2023-02-19T19:09:23;16.30;1.00
3976;DHT22;2002;48.812;9.180;2023-02-19T19:11:49;16.20;1.00